sensor_id;sensor_type;location;lat;lon;timestamp;temperature;humidity
18067;DHT22;9158;51.528;7.192;2022-10-04T00:00:09;10.30;99.90
18067;DHT22;9158;51.528;7.192;2022-10-04T00:00:42;10.30;99.90
18067;DHT22;9158;51.528;7.192;2022-10-04T00:01:14;10.30;99.90
18067;DHT22;9158;51.528;7.192;2022-10-04T00:01:48;10.30;99.90
18067;DHT22;9158;51.528;7.192;2022-10-04T00:02:24;10.30;99.90
18067;DHT22;9158;51.528;7.192;2022-10-04T00:03:04;10.30;99.90
18067;DHT22;9158;51.528;7.192;2022-10-04T00:03:41;10.30;99.90
18067;DHT22;9158;51.528;7.192;2022-10-04T00:04:18;10.30;99.90
18067;DHT22;9158;51.528;7.192;2022-10-04T00:04:53;10.30;99.90
18067;DHT22;9158;51.528;7.192;2022-10-04T00:05:28;10.30;99.90
18067;DHT22;9158;51.528;7.192;2022-10-04T00:06:01;10.30;99.90
18067;DHT22;9158;51.528;7.192;2022-10-04T00:06:34;10.30;99.90
18067;DHT22;9158;51.528;7.192;2022-10-04T00:07:15;10.30;99.90
18067;DHT22;9158;51.528;7.192;2022-10-04T00:07:52;10.30;99.90
18067;DHT22;9158;51.528;7.192;2022-10-04T00:08:30;10.30;99.90
18067;DHT22;9158;51.528;7.192;2022-10-04T00:09:06;10.20;99.90
18067;DHT22;9158;51.528;7.192;2022-10-04T00:09:42;10.30;99.90
18067;DHT22;9158;51.528;7.192;2022-10-04T00:10:18;10.20;99.90
18067;DHT22;9158;51.528;7.192;2022-10-04T00:11:01;10.20;99.90
18067;DHT22;9158;51.528;7.192;2022-10-04T00:11:35;10.20;99.90
18067;DHT22;9158;51.528;7.192;2022-10-04T00:12:16;10.20;99.90
18067;DHT22;9158;51.528;7.192;2022-10-04T00:12:51;10.20;99.90
18067;DHT22;9158;51.528;7.192;2022-10-04T00:13:25;10.20;99.90
18067;DHT22;9158;51.528;7.192;2022-10-04T00:13:59;10.30;99.90
18067;DHT22;9158;51.528;7.192;2022-10-04T00:14:34;10.20;99.90
18067;DHT22;9158;51.528;7.192;2022-10-04T00:15:18;10.20;99.90
18067;DHT22;9158;51.528;7.192;2022-10-04T00:15:50;10.20;99.90
18067;DHT22;9158;51.528;7.192;2022-10-04T00:16:27;10.20;99.90
18067;DHT22;9158;51.528;7.192;2022-10-04T00:16:59;10.20;99.90
18067;DHT22;9158;51.528;7.192;2022-10-04T00:17:37;10.20;99.90
18067;DHT22;9158;51.528;7.192;2022-10-04T00:18:21;10.20;99.90
18067;DHT22;9158;51.528;7.192;2022-10-04T00:19:22;10.20;99.90
18067;DHT22;9158;51.528;7.192;2022-10-04T00:19:55;10.20;99.90
18067;DHT22;9158;51.528;7.192;2022-10-04T00:20:55;10.20;99.90
18067;DHT22;9158;51.528;7.192;2022-10-04T00:22:09;10.20;99.90
18067;DHT22;9158;51.528;7.192;2022-10-04T00:23:24;10.20;99.90
18067;DHT22;9158;51.528;7.192;2022-10-04T00:24:08;10.30;99.90
18067;DHT22;9158;51.528;7.192;2022-10-04T00:25:51;10.30;99.90
18067;DHT22;9158;51.528;7.192;2022-10-04T00:28:51;10.40;99.90
18067;DHT22;9158;51.528;7.192;2022-10-04T00:29:33;10.30;99.90
18067;DHT22;9158;51.528;7.192;2022-10-04T00:30:19;10.30;99.90
18067;DHT22;9158;51.528;7.192;2022-10-04T00:31:19;10.40;99.90
18067;DHT22;9158;51.528;7.192;2022-10-04T00:32:25;10.40;99.90
18067;DHT22;9158;51.528;7.192;2022-10-04T00:33:01;10.40;99.90
18067;DHT22;9158;51.528;7.192;2022-10-04T00:33:35;10.40;99.90
18067;DHT22;9158;51.528;7.192;2022-10-04T00:34:44;10.50;99.90
18067;DHT22;9158;51.528;7.192;2022-10-04T00:35:45;10.50;99.90
18067;DHT22;9158;51.528;7.192;2022-10-04T00:36:40;10.50;99.90
18067;DHT22;9158;51.528;7.192;2022-10-04T00:37:16;10.50;99.90
18067;DHT22;9158;51.528;7.192;2022-10-04T00:37:56;10.50;99.90
18067;DHT22;9158;51.528;7.192;2022-10-04T00:38:28;10.50;99.90
18067;DHT22;9158;51.528;7.192;2022-10-04T00:39:13;10.50;99.90
18067;DHT22;9158;51.528;7.192;2022-10-04T00:39:46;10.50;99.90
18067;DHT22;9158;51.528;7.192;2022-10-04T00:40:28;10.50;99.90
18067;DHT22;9158;51.528;7.192;2022-10-04T00:41:05;10.50;99.90
18067;DHT22;9158;51.528;7.192;2022-10-04T00:41:47;10.50;99.90
18067;DHT22;9158;51.528;7.192;2022-10-04T00:42:46;10.50;99.90
18067;DHT22;9158;51.528;7.192;2022-10-04T00:43:20;10.50;99.90
18067;DHT22;9158;51.528;7.192;2022-10-04T00:43:56;10.50;99.90
18067;DHT22;9158;51.528;7.192;2022-10-04T00:44:32;10.60;99.90
18067;DHT22;9158;51.528;7.192;2022-10-04T00:45:12;10.60;99.90
18067;DHT22;9158;51.528;7.192;2022-10-04T00:45:46;10.60;99.90
18067;DHT22;9158;51.528;7.192;2022-10-04T00:46:22;10.60;99.90
18067;DHT22;9158;51.528;7.192;2022-10-04T00:46:54;10.60;99.90
18067;DHT22;9158;51.528;7.192;2022-10-04T00:47:29;10.60;99.90
18067;DHT22;9158;51.528;7.192;2022-10-04T00:48:28;10.60;99.90
18067;DHT22;9158;51.528;7.192;2022-10-04T00:49:02;10.60;99.90
18067;DHT22;9158;51.528;7.192;2022-10-04T00:49:38;10.60;99.90
18067;DHT22;9158;51.528;7.192;2022-10-04T00:50:15;10.60;99.90
18067;DHT22;9158;51.528;7.192;2022-10-04T00:50:52;10.60;99.90
18067;DHT22;9158;51.528;7.192;2022-10-04T00:51:30;10.60;99.90
18067;DHT22;9158;51.528;7.192;2022-10-04T00:52:06;10.60;99.90
18067;DHT22;9158;51.528;7.192;2022-10-04T00:52:44;10.60;99.90
18067;DHT22;9158;51.528;7.192;2022-10-04T00:53:34;10.70;99.90
18067;DHT22;9158;51.528;7.192;2022-10-04T00:54:11;10.70;99.90
18067;DHT22;9158;51.528;7.192;2022-10-04T00:54:48;10.70;99.90
18067;DHT22;9158;51.528;7.192;2022-10-04T00:55:25;10.70;99.90
18067;DHT22;9158;51.528;7.192;2022-10-04T00:55:59;10.70;99.90
18067;DHT22;9158;51.528;7.192;2022-10-04T00:56:38;10.70;99.90
18067;DHT22;9158;51.528;7.192;2022-10-04T00:57:15;10.70;99.90
18067;DHT22;9158;51.528;7.192;2022-10-04T00:57:48;10.70;99.90
18067;DHT22;9158;51.528;7.192;2022-10-04T00:58:25;10.70;99.90
18067;DHT22;9158;51.528;7.192;2022-10-04T00:59:30;10.70;99.90
18067;DHT22;9158;51.528;7.192;2022-10-04T01:00:07;10.60;99.90
18067;DHT22;9158;51.528;7.192;2022-10-04T01:00:42;10.60;99.90
18067;DHT22;9158;51.528;7.192;2022-10-04T01:01:18;10.70;99.90
18067;DHT22;9158;51.528;7.192;2022-10-04T01:01:55;10.70;99.90
18067;DHT22;9158;51.528;7.192;2022-10-04T01:02:32;10.70;99.90
18067;DHT22;9158;51.528;7.192;2022-10-04T01:03:08;10.70;99.90
18067;DHT22;9158;51.528;7.192;2022-10-04T01:03:42;10.70;99.90
18067;DHT22;9158;51.528;7.192;2022-10-04T01:05:20;10.70;99.90
18067;DHT22;9158;51.528;7.192;2022-10-04T01:05:58;10.70;99.90
18067;DHT22;9158;51.528;7.192;2022-10-04T01:06:31;10.70;99.90
18067;DHT22;9158;51.528;7.192;2022-10-04T01:07:05;10.70;99.90
18067;DHT22;9158;51.528;7.192;2022-10-04T01:07:40;10.70;99.90
18067;DHT22;9158;51.528;7.192;2022-10-04T01:08:13;10.70;99.90
18067;DHT22;9158;51.528;7.192;2022-10-04T01:08:48;10.70;99.90
18067;DHT22;9158;51.528;7.192;2022-10-04T01:09:21;10.60;99.90
18067;DHT22;9158;51.528;7.192;2022-10-04T01:09:54;10.60;99.90
18067;DHT22;9158;51.528;7.192;2022-10-04T01:10:30;10.60;99.90
18067;DHT22;9158;51.528;7.192;2022-10-04T01:11:04;10.60;99.90
18067;DHT22;9158;51.528;7.192;2022-10-04T01:11:41;10.60;99.90
18067;DHT22;9158;51.528;7.192;2022-10-04T01:12:25;10.60;99.90
18067;DHT22;9158;51.528;7.192;2022-10-04T01:13:03;10.60;99.90
18067;DHT22;9158;51.528;7.192;2022-10-04T01:13:38;10.60;99.90
18067;DHT22;9158;51.528;7.192;2022-10-04T01:14:18;10.60;99.90
18067;DHT22;9158;51.528;7.192;2022-10-04T01:14:57;10.60;99.90
18067;DHT22;9158;51.528;7.192;2022-10-04T01:15:34;10.60;99.90
18067;DHT22;9158;51.528;7.192;2022-10-04T01:16:13;10.60;99.90
18067;DHT22;9158;51.528;7.192;2022-10-04T01:16:44;10.60;99.90
18067;DHT22;9158;51.528;7.192;2022-10-04T01:17:15;10.60;99.90
18067;DHT22;9158;51.528;7.192;2022-10-04T01:18:08;10.60;99.90
18067;DHT22;9158;51.528;7.192;2022-10-04T01:18:40;10.70;99.90
18067;DHT22;9158;51.528;7.192;2022-10-04T01:19:27;10.70;99.90
18067;DHT22;9158;51.528;7.192;2022-10-04T01:19:58;10.70;99.90
18067;DHT22;9158;51.528;7.192;2022-10-04T01:20:32;10.70;99.90
18067;DHT22;9158;51.528;7.192;2022-10-04T01:21:06;10.70;99.90
18067;DHT22;9158;51.528;7.192;2022-10-04T01:21:39;10.70;99.90
18067;DHT22;9158;51.528;7.192;2022-10-04T01:22:13;10.70;99.90
18067;DHT22;9158;51.528;7.192;2022-10-04T01:22:49;10.70;99.90
18067;DHT22;9158;51.528;7.192;2022-10-04T01:23:48;10.60;99.90
18067;DHT22;9158;51.528;7.192;2022-10-04T01:24:20;10.60;99.90
18067;DHT22;9158;51.528;7.192;2022-10-04T01:24:52;10.60;99.90
18067;DHT22;9158;51.528;7.192;2022-10-04T01:25:42;10.60;99.90
18067;DHT22;9158;51.528;7.192;2022-10-04T01:26:39;10.60;99.90
18067;DHT22;9158;51.528;7.192;2022-10-04T01:27:31;10.60;99.90
18067;DHT22;9158;51.528;7.192;2022-10-04T01:28:02;10.50;99.90
18067;DHT22;9158;51.528;7.192;2022-10-04T01:28:34;10.50;99.90
18067;DHT22;9158;51.528;7.192;2022-10-04T01:29:08;10.50;99.90
18067;DHT22;9158;51.528;7.192;2022-10-04T01:29:40;10.50;99.90
18067;DHT22;9158;51.528;7.192;2022-10-04T01:30:14;10.50;99.90
18067;DHT22;9158;51.528;7.192;2022-10-04T01:30:46;10.50;99.90
18067;DHT22;9158;51.528;7.192;2022-10-04T01:31:17;10.50;99.90
18067;DHT22;9158;51.528;7.192;2022-10-04T01:31:50;10.50;99.90
18067;DHT22;9158;51.528;7.192;2022-10-04T01:32:22;10.40;99.90
18067;DHT22;9158;51.528;7.192;2022-10-04T01:32:52;10.50;99.90
18067;DHT22;9158;51.528;7.192;2022-10-04T01:33:24;10.40;99.90
18067;DHT22;9158;51.528;7.192;2022-10-04T01:33:56;10.40;99.90
18067;DHT22;9158;51.528;7.192;2022-10-04T01:34:28;10.40;99.90
18067;DHT22;9158;51.528;7.192;2022-10-04T01:35:01;10.40;99.90
18067;DHT22;9158;51.528;7.192;2022-10-04T01:35:32;10.40;99.90
18067;DHT22;9158;51.528;7.192;2022-10-04T01:36:05;10.40;99.90
18067;DHT22;9158;51.528;7.192;2022-10-04T01:36:37;10.40;99.90
18067;DHT22;9158;51.528;7.192;2022-10-04T01:37:09;10.40;99.90
18067;DHT22;9158;51.528;7.192;2022-10-04T01:37:40;10.40;99.90
18067;DHT22;9158;51.528;7.192;2022-10-04T01:38:13;10.50;99.90
18067;DHT22;9158;51.528;7.192;2022-10-04T01:38:44;10.40;99.90
18067;DHT22;9158;51.528;7.192;2022-10-04T01:39:17;10.40;99.90
18067;DHT22;9158;51.528;7.192;2022-10-04T01:39:50;10.40;99.90
18067;DHT22;9158;51.528;7.192;2022-10-04T01:40:21;10.40;99.90
18067;DHT22;9158;51.528;7.192;2022-10-04T01:40:55;10.50;99.90
18067;DHT22;9158;51.528;7.192;2022-10-04T01:41:37;10.50;99.90
18067;DHT22;9158;51.528;7.192;2022-10-04T01:42:12;10.50;99.90
18067;DHT22;9158;51.528;7.192;2022-10-04T01:42:49;10.50;99.90
18067;DHT22;9158;51.528;7.192;2022-10-04T01:43:24;10.50;99.90
18067;DHT22;9158;51.528;7.192;2022-10-04T01:43:59;10.50;99.90
18067;DHT22;9158;51.528;7.192;2022-10-04T01:44:37;10.50;99.90
18067;DHT22;9158;51.528;7.192;2022-10-04T01:45:15;10.50;99.90
18067;DHT22;9158;51.528;7.192;2022-10-04T01:45:52;10.50;99.90
18067;DHT22;9158;51.528;7.192;2022-10-04T01:46:29;10.50;99.90
18067;DHT22;9158;51.528;7.192;2022-10-04T01:47:04;11.20;99.90
18067;DHT22;9158;51.528;7.192;2022-10-04T01:47:41;10.40;99.90
18067;DHT22;9158;51.528;7.192;2022-10-04T01:48:20;10.40;99.90
18067;DHT22;9158;51.528;7.192;2022-10-04T01:48:53;10.40;99.90
18067;DHT22;9158;51.528;7.192;2022-10-04T01:49:29;10.40;99.90
18067;DHT22;9158;51.528;7.192;2022-10-04T01:50:06;10.40;99.90
18067;DHT22;9158;51.528;7.192;2022-10-04T01:50:41;10.40;99.90
18067;DHT22;9158;51.528;7.192;2022-10-04T01:51:17;10.40;99.90
18067;DHT22;9158;51.528;7.192;2022-10-04T01:51:56;10.40;99.90
18067;DHT22;9158;51.528;7.192;2022-10-04T01:52:32;10.40;99.90
18067;DHT22;9158;51.528;7.192;2022-10-04T01:53:11;10.40;99.90
18067;DHT22;9158;51.528;7.192;2022-10-04T01:53:51;10.40;99.90
18067;DHT22;9158;51.528;7.192;2022-10-04T01:54:30;10.40;99.90
18067;DHT22;9158;51.528;7.192;2022-10-04T01:55:07;10.40;99.90
18067;DHT22;9158;51.528;7.192;2022-10-04T01:55:43;10.40;99.90
18067;DHT22;9158;51.528;7.192;2022-10-04T01:56:19;10.40;99.90
18067;DHT22;9158;51.528;7.192;2022-10-04T01:56:57;10.40;99.90
18067;DHT22;9158;51.528;7.192;2022-10-04T01:57:33;10.40;99.90
18067;DHT22;9158;51.528;7.192;2022-10-04T01:58:09;10.40;99.90
18067;DHT22;9158;51.528;7.192;2022-10-04T01:58:47;10.40;99.90
18067;DHT22;9158;51.528;7.192;2022-10-04T01:59:22;10.40;99.90
18067;DHT22;9158;51.528;7.192;2022-10-04T01:59:59;10.40;99.90
18067;DHT22;9158;51.528;7.192;2022-10-04T02:00:31;10.40;99.90
18067;DHT22;9158;51.528;7.192;2022-10-04T02:01:06;10.40;99.90
18067;DHT22;9158;51.528;7.192;2022-10-04T02:01:44;10.50;99.90
18067;DHT22;9158;51.528;7.192;2022-10-04T02:02:22;10.50;99.90
18067;DHT22;9158;51.528;7.192;2022-10-04T02:02:57;10.50;99.90
18067;DHT22;9158;51.528;7.192;2022-10-04T02:03:34;10.50;99.90
18067;DHT22;9158;51.528;7.192;2022-10-04T02:04:09;10.50;99.90
18067;DHT22;9158;51.528;7.192;2022-10-04T02:04:42;10.50;99.90
18067;DHT22;9158;51.528;7.192;2022-10-04T02:05:23;10.50;99.90
18067;DHT22;9158;51.528;7.192;2022-10-04T02:05:58;10.50;99.90
18067;DHT22;9158;51.528;7.192;2022-10-04T02:06:35;10.40;99.90
18067;DHT22;9158;51.528;7.192;2022-10-04T02:07:13;10.40;99.90
18067;DHT22;9158;51.528;7.192;2022-10-04T02:07:45;10.40;99.90
18067;DHT22;9158;51.528;7.192;2022-10-04T02:08:22;10.40;99.90
18067;DHT22;9158;51.528;7.192;2022-10-04T02:08:57;10.40;99.90
18067;DHT22;9158;51.528;7.192;2022-10-04T02:09:31;10.40;99.90
18067;DHT22;9158;51.528;7.192;2022-10-04T02:10:06;10.40;99.90
18067;DHT22;9158;51.528;7.192;2022-10-04T02:10:40;10.40;99.90
18067;DHT22;9158;51.528;7.192;2022-10-04T02:11:15;10.40;99.90
18067;DHT22;9158;51.528;7.192;2022-10-04T02:11:49;10.40;99.90
18067;DHT22;9158;51.528;7.192;2022-10-04T02:12:24;10.40;99.90
18067;DHT22;9158;51.528;7.192;2022-10-04T02:12:56;10.40;99.90
18067;DHT22;9158;51.528;7.192;2022-10-04T02:13:32;10.40;99.90
18067;DHT22;9158;51.528;7.192;2022-10-04T02:14:11;10.40;99.90
18067;DHT22;9158;51.528;7.192;2022-10-04T02:14:47;10.30;99.90
18067;DHT22;9158;51.528;7.192;2022-10-04T02:15:23;10.30;99.90
18067;DHT22;9158;51.528;7.192;2022-10-04T02:15:58;10.30;99.90
18067;DHT22;9158;51.528;7.192;2022-10-04T02:16:30;10.30;99.90
18067;DHT22;9158;51.528;7.192;2022-10-04T02:17:04;10.30;99.90
18067;DHT22;9158;51.528;7.192;2022-10-04T02:17:41;10.40;99.90
18067;DHT22;9158;51.528;7.192;2022-10-04T02:18:15;10.40;99.90
18067;DHT22;9158;51.528;7.192;2022-10-04T02:18:48;10.40;99.90
18067;DHT22;9158;51.528;7.192;2022-10-04T02:19:21;10.40;99.90
18067;DHT22;9158;51.528;7.192;2022-10-04T02:19:55;10.40;99.90
18067;DHT22;9158;51.528;7.192;2022-10-04T02:20:27;10.40;99.90
18067;DHT22;9158;51.528;7.192;2022-10-04T02:20:58;10.40;99.90
18067;DHT22;9158;51.528;7.192;2022-10-04T02:21:30;10.40;99.90
18067;DHT22;9158;51.528;7.192;2022-10-04T02:22:03;10.40;99.90
18067;DHT22;9158;51.528;7.192;2022-10-04T02:22:35;10.40;99.90
18067;DHT22;9158;51.528;7.192;2022-10-04T02:23:08;10.40;99.90
18067;DHT22;9158;51.528;7.192;2022-10-04T02:23:40;10.40;99.90
18067;DHT22;9158;51.528;7.192;2022-10-04T02:24:13;10.40;99.90
18067;DHT22;9158;51.528;7.192;2022-10-04T02:24:46;10.40;99.90
18067;DHT22;9158;51.528;7.192;2022-10-04T02:25:19;10.30;99.90
18067;DHT22;9158;51.528;7.192;2022-10-04T02:25:51;10.30;99.90
18067;DHT22;9158;51.528;7.192;2022-10-04T02:26:22;10.30;99.90
18067;DHT22;9158;51.528;7.192;2022-10-04T02:26:53;10.30;99.90
18067;DHT22;9158;51.528;7.192;2022-10-04T02:27:27;10.30;99.90
18067;DHT22;9158;51.528;7.192;2022-10-04T02:28:01;10.30;99.90
18067;DHT22;9158;51.528;7.192;2022-10-04T02:28:35;10.30;99.90
18067;DHT22;9158;51.528;7.192;2022-10-04T02:29:08;10.30;99.90
18067;DHT22;9158;51.528;7.192;2022-10-04T02:29:39;10.30;99.90
18067;DHT22;9158;51.528;7.192;2022-10-04T02:30:12;10.30;99.90
18067;DHT22;9158;51.528;7.192;2022-10-04T02:30:46;10.30;99.90
18067;DHT22;9158;51.528;7.192;2022-10-04T02:31:38;10.30;99.90
18067;DHT22;9158;51.528;7.192;2022-10-04T02:32:29;10.30;99.90
18067;DHT22;9158;51.528;7.192;2022-10-04T02:33:19;10.30;99.90
18067;DHT22;9158;51.528;7.192;2022-10-04T02:33:54;10.30;99.90
18067;DHT22;9158;51.528;7.192;2022-10-04T02:34:26;10.30;99.90
18067;DHT22;9158;51.528;7.192;2022-10-04T02:34:57;10.30;99.90
18067;DHT22;9158;51.528;7.192;2022-10-04T02:35:31;10.30;99.90
18067;DHT22;9158;51.528;7.192;2022-10-04T02:36:06;10.30;99.90
18067;DHT22;9158;51.528;7.192;2022-10-04T02:36:39;10.10;99.90
18067;DHT22;9158;51.528;7.192;2022-10-04T02:37:11;10.30;99.90
18067;DHT22;9158;51.528;7.192;2022-10-04T02:37:43;10.30;99.90
18067;DHT22;9158;51.528;7.192;2022-10-04T02:38:21;10.30;99.90
18067;DHT22;9158;51.528;7.192;2022-10-04T02:38:56;10.30;99.90
18067;DHT22;9158;51.528;7.192;2022-10-04T02:39:33;10.30;99.90
18067;DHT22;9158;51.528;7.192;2022-10-04T02:40:10;10.30;99.90
18067;DHT22;9158;51.528;7.192;2022-10-04T02:40:49;10.30;99.90
18067;DHT22;9158;51.528;7.192;2022-10-04T02:41:26;10.20;99.90
18067;DHT22;9158;51.528;7.192;2022-10-04T02:42:04;10.20;99.90
18067;DHT22;9158;51.528;7.192;2022-10-04T02:42:42;10.20;99.90
18067;DHT22;9158;51.528;7.192;2022-10-04T02:43:17;10.20;99.90
18067;DHT22;9158;51.528;7.192;2022-10-04T02:43:55;10.20;99.90
18067;DHT22;9158;51.528;7.192;2022-10-04T02:44:28;10.20;99.90
18067;DHT22;9158;51.528;7.192;2022-10-04T02:45:05;10.20;99.90
18067;DHT22;9158;51.528;7.192;2022-10-04T02:45:45;10.20;99.90
18067;DHT22;9158;51.528;7.192;2022-10-04T02:46:22;10.20;99.90
18067;DHT22;9158;51.528;7.192;2022-10-04T02:47:04;10.20;99.90
18067;DHT22;9158;51.528;7.192;2022-10-04T02:47:43;10.20;99.90
18067;DHT22;9158;51.528;7.192;2022-10-04T02:48:27;10.20;99.90
18067;DHT22;9158;51.528;7.192;2022-10-04T02:49:03;10.20;99.90
18067;DHT22;9158;51.528;7.192;2022-10-04T02:49:38;10.20;99.90
18067;DHT22;9158;51.528;7.192;2022-10-04T02:50:23;10.20;99.90
18067;DHT22;9158;51.528;7.192;2022-10-04T02:50:59;10.20;99.90
18067;DHT22;9158;51.528;7.192;2022-10-04T02:51:39;10.20;99.90
18067;DHT22;9158;51.528;7.192;2022-10-04T02:52:19;10.20;99.90
18067;DHT22;9158;51.528;7.192;2022-10-04T02:52:56;10.20;99.90
18067;DHT22;9158;51.528;7.192;2022-10-04T02:53:32;10.20;99.90
18067;DHT22;9158;51.528;7.192;2022-10-04T02:54:14;10.20;99.90
18067;DHT22;9158;51.528;7.192;2022-10-04T02:54:53;10.20;99.90
18067;DHT22;9158;51.528;7.192;2022-10-04T02:55:27;10.20;99.90
18067;DHT22;9158;51.528;7.192;2022-10-04T02:56:01;10.20;99.90
18067;DHT22;9158;51.528;7.192;2022-10-04T02:56:34;10.20;99.90
18067;DHT22;9158;51.528;7.192;2022-10-04T02:57:12;10.20;99.90
18067;DHT22;9158;51.528;7.192;2022-10-04T02:57:45;10.20;99.90
18067;DHT22;9158;51.528;7.192;2022-10-04T02:58:20;10.30;99.90
18067;DHT22;9158;51.528;7.192;2022-10-04T02:58:52;10.30;99.90
18067;DHT22;9158;51.528;7.192;2022-10-04T02:59:24;10.30;99.90
18067;DHT22;9158;51.528;7.192;2022-10-04T03:00:06;10.30;99.90
18067;DHT22;9158;51.528;7.192;2022-10-04T03:00:47;10.30;99.90
18067;DHT22;9158;51.528;7.192;2022-10-04T03:01:24;10.30;99.90
18067;DHT22;9158;51.528;7.192;2022-10-04T03:01:57;10.40;99.90
18067;DHT22;9158;51.528;7.192;2022-10-04T03:02:30;10.40;99.90
18067;DHT22;9158;51.528;7.192;2022-10-04T03:03:18;10.40;99.90
18067;DHT22;9158;51.528;7.192;2022-10-04T03:03:50;10.40;99.90
18067;DHT22;9158;51.528;7.192;2022-10-04T03:04:25;10.40;99.90
18067;DHT22;9158;51.528;7.192;2022-10-04T03:05:00;10.40;99.90
18067;DHT22;9158;51.528;7.192;2022-10-04T03:05:34;10.40;99.90
18067;DHT22;9158;51.528;7.192;2022-10-04T03:06:09;10.40;99.90
18067;DHT22;9158;51.528;7.192;2022-10-04T03:06:42;10.40;99.90
18067;DHT22;9158;51.528;7.192;2022-10-04T03:07:16;10.40;99.90
18067;DHT22;9158;51.528;7.192;2022-10-04T03:07:48;10.40;99.90
18067;DHT22;9158;51.528;7.192;2022-10-04T03:08:21;10.40;99.90
18067;DHT22;9158;51.528;7.192;2022-10-04T03:08:55;10.40;99.90
18067;DHT22;9158;51.528;7.192;2022-10-04T03:09:28;10.40;99.90
18067;DHT22;9158;51.528;7.192;2022-10-04T03:10:05;10.40;99.90
18067;DHT22;9158;51.528;7.192;2022-10-04T03:10:38;10.40;99.90
18067;DHT22;9158;51.528;7.192;2022-10-04T03:11:13;10.40;99.90
18067;DHT22;9158;51.528;7.192;2022-10-04T03:11:46;10.40;99.90
18067;DHT22;9158;51.528;7.192;2022-10-04T03:12:17;10.40;99.90
18067;DHT22;9158;51.528;7.192;2022-10-04T03:12:49;10.40;99.90
18067;DHT22;9158;51.528;7.192;2022-10-04T03:13:22;10.40;99.90
18067;DHT22;9158;51.528;7.192;2022-10-04T03:13:55;10.50;99.90
18067;DHT22;9158;51.528;7.192;2022-10-04T03:14:27;10.50;99.90
18067;DHT22;9158;51.528;7.192;2022-10-04T03:14:59;10.50;99.90
18067;DHT22;9158;51.528;7.192;2022-10-04T03:15:30;10.50;99.90
18067;DHT22;9158;51.528;7.192;2022-10-04T03:16:02;10.50;99.90
18067;DHT22;9158;51.528;7.192;2022-10-04T03:16:37;10.50;99.90
18067;DHT22;9158;51.528;7.192;2022-10-04T03:17:09;10.50;99.90
18067;DHT22;9158;51.528;7.192;2022-10-04T03:17:40;10.50;99.90
18067;DHT22;9158;51.528;7.192;2022-10-04T03:18:13;10.60;99.90
18067;DHT22;9158;51.528;7.192;2022-10-04T03:18:46;10.60;99.90
18067;DHT22;9158;51.528;7.192;2022-10-04T03:19:18;10.60;99.90
18067;DHT22;9158;51.528;7.192;2022-10-04T03:19:51;10.50;99.90
18067;DHT22;9158;51.528;7.192;2022-10-04T03:20:22;10.50;99.90
18067;DHT22;9158;51.528;7.192;2022-10-04T03:20:53;10.60;99.90
18067;DHT22;9158;51.528;7.192;2022-10-04T03:21:24;10.60;99.90
18067;DHT22;9158;51.528;7.192;2022-10-04T03:22:00;10.60;99.90
18067;DHT22;9158;51.528;7.192;2022-10-04T03:22:32;10.60;99.90
18067;DHT22;9158;51.528;7.192;2022-10-04T03:23:03;10.60;99.90
18067;DHT22;9158;51.528;7.192;2022-10-04T03:23:37;10.60;99.90
18067;DHT22;9158;51.528;7.192;2022-10-04T03:24:14;10.60;99.90
18067;DHT22;9158;51.528;7.192;2022-10-04T03:24:47;10.60;99.90
18067;DHT22;9158;51.528;7.192;2022-10-04T03:25:29;10.60;99.90
18067;DHT22;9158;51.528;7.192;2022-10-04T03:26:16;10.60;99.90
18067;DHT22;9158;51.528;7.192;2022-10-04T03:26:51;10.60;99.90
18067;DHT22;9158;51.528;7.192;2022-10-04T03:27:26;10.60;99.90
18067;DHT22;9158;51.528;7.192;2022-10-04T03:28:00;10.60;99.90
18067;DHT22;9158;51.528;7.192;2022-10-04T03:28:32;10.50;99.90
18067;DHT22;9158;51.528;7.192;2022-10-04T03:29:08;10.50;99.90
18067;DHT22;9158;51.528;7.192;2022-10-04T03:29:40;10.50;99.90
18067;DHT22;9158;51.528;7.192;2022-10-04T03:30:13;10.40;99.90
18067;DHT22;9158;51.528;7.192;2022-10-04T03:30:46;10.40;99.90
18067;DHT22;9158;51.528;7.192;2022-10-04T03:31:17;10.40;99.90
18067;DHT22;9158;51.528;7.192;2022-10-04T03:31:51;10.40;99.90
18067;DHT22;9158;51.528;7.192;2022-10-04T03:32:28;10.40;99.90
18067;DHT22;9158;51.528;7.192;2022-10-04T03:33:02;10.40;99.90
18067;DHT22;9158;51.528;7.192;2022-10-04T03:33:33;10.40;99.90
18067;DHT22;9158;51.528;7.192;2022-10-04T03:34:04;10.40;99.90
18067;DHT22;9158;51.528;7.192;2022-10-04T03:34:38;10.40;99.90
18067;DHT22;9158;51.528;7.192;2022-10-04T03:35:21;10.50;99.90
18067;DHT22;9158;51.528;7.192;2022-10-04T03:35:57;10.50;99.90
18067;DHT22;9158;51.528;7.192;2022-10-04T03:36:30;10.40;99.90
18067;DHT22;9158;51.528;7.192;2022-10-04T03:37:05;10.50;99.90
18067;DHT22;9158;51.528;7.192;2022-10-04T03:37:37;10.50;99.90
18067;DHT22;9158;51.528;7.192;2022-10-04T03:38:10;10.50;99.90
18067;DHT22;9158;51.528;7.192;2022-10-04T03:38:43;10.50;99.90
18067;DHT22;9158;51.528;7.192;2022-10-04T03:39:18;10.50;99.90
18067;DHT22;9158;51.528;7.192;2022-10-04T03:39:52;10.50;99.90
18067;DHT22;9158;51.528;7.192;2022-10-04T03:40:28;10.50;99.90
18067;DHT22;9158;51.528;7.192;2022-10-04T03:41:01;10.50;99.90
18067;DHT22;9158;51.528;7.192;2022-10-04T03:41:32;10.50;99.90
18067;DHT22;9158;51.528;7.192;2022-10-04T03:42:09;10.40;99.90
18067;DHT22;9158;51.528;7.192;2022-10-04T03:42:42;10.40;99.90
18067;DHT22;9158;51.528;7.192;2022-10-04T03:43:15;10.40;99.90
18067;DHT22;9158;51.528;7.192;2022-10-04T03:43:49;10.40;99.90
18067;DHT22;9158;51.528;7.192;2022-10-04T03:44:23;10.40;99.90
18067;DHT22;9158;51.528;7.192;2022-10-04T03:44:56;10.40;99.90
18067;DHT22;9158;51.528;7.192;2022-10-04T03:45:32;10.40;99.90
18067;DHT22;9158;51.528;7.192;2022-10-04T03:46:05;10.40;99.90
18067;DHT22;9158;51.528;7.192;2022-10-04T03:46:38;10.40;99.90
18067;DHT22;9158;51.528;7.192;2022-10-04T03:47:13;10.40;99.90
18067;DHT22;9158;51.528;7.192;2022-10-04T03:47:47;10.40;99.90
18067;DHT22;9158;51.528;7.192;2022-10-04T03:48:26;10.40;99.90
18067;DHT22;9158;51.528;7.192;2022-10-04T03:48:58;10.40;99.90
18067;DHT22;9158;51.528;7.192;2022-10-04T03:49:32;10.40;99.90
18067;DHT22;9158;51.528;7.192;2022-10-04T03:50:14;10.40;99.90
18067;DHT22;9158;51.528;7.192;2022-10-04T03:50:47;10.40;99.90
18067;DHT22;9158;51.528;7.192;2022-10-04T03:51:21;10.40;99.90
18067;DHT22;9158;51.528;7.192;2022-10-04T03:51:54;10.40;99.90
18067;DHT22;9158;51.528;7.192;2022-10-04T03:52:29;10.30;99.90
18067;DHT22;9158;51.528;7.192;2022-10-04T03:53:04;10.30;99.90
18067;DHT22;9158;51.528;7.192;2022-10-04T03:53:39;10.30;99.90
18067;DHT22;9158;51.528;7.192;2022-10-04T03:54:15;10.30;99.90
18067;DHT22;9158;51.528;7.192;2022-10-04T03:54:49;10.30;99.90
18067;DHT22;9158;51.528;7.192;2022-10-04T03:55:23;10.30;99.90
18067;DHT22;9158;51.528;7.192;2022-10-04T03:55:58;10.30;99.90
18067;DHT22;9158;51.528;7.192;2022-10-04T03:56:32;10.30;99.90
18067;DHT22;9158;51.528;7.192;2022-10-04T03:57:11;10.30;99.90
18067;DHT22;9158;51.528;7.192;2022-10-04T03:57:43;10.30;99.90
18067;DHT22;9158;51.528;7.192;2022-10-04T03:58:15;10.30;99.90